createdAt,value
2023-02-07T00:01:23.855Z,65.85
2023-02-07T00:03:52.158Z,65.28
2023-02-07T00:06:25.330Z,65.42
2023-02-07T00:08:53.472Z,65.32
2023-02-07T00:11:23.539Z,65.36
2023-02-07T00:13:53.957Z,65.30
2023-02-07T00:16:22.267Z,65.64
2023-02-07T00:18:49.835Z,65.65
2023-02-07T00:21:20.915Z,65.43
2023-02-07T00:23:48.618Z,65.20
2023-02-07T00:26:17.302Z,65.20
2023-02-07T00:28:45.066Z,65.23
2023-02-07T00:31:15.938Z,65.28
2023-02-07T00:33:44.824Z,65.25
2023-02-07T00:36:15.224Z,65.28
2023-02-07T00:38:43.023Z,65.23
2023-02-07T00:52:36.021Z,65.42
2023-02-07T00:59:08.233Z,65.31
2023-02-07T01:02:04.900Z,65.44
2023-02-07T01:04:32.250Z,64.71
2023-02-07T01:06:59.607Z,65.09
2023-02-07T01:09:26.913Z,65.10
2023-02-07T01:11:54.262Z,65.04
2023-02-07T01:14:21.602Z,65.14
2023-02-07T01:16:49.757Z,64.89
2023-02-07T01:19:18.553Z,65.02
2023-02-07T01:21:46.202Z,65.27
2023-02-07T01:24:13.400Z,65.17
2023-02-07T01:26:41.546Z,65.22
2023-02-07T01:29:10.583Z,64.80
2023-02-07T01:31:38.042Z,65.05
2023-02-07T01:34:05.887Z,64.72
2023-02-07T01:36:33.213Z,65.24
2023-02-07T01:39:00.349Z,65.39
2023-02-07T01:41:28.255Z,65.15
2023-02-07T01:44:05.835Z,65.35
2023-02-07T01:46:35.614Z,65.39
2023-02-07T01:49:09.057Z,65.12
2023-02-07T01:51:38.022Z,65.32
2023-02-07T01:54:10.545Z,65.27
2023-02-07T01:56:42.363Z,65.09
2023-02-07T01:59:09.593Z,65.06
2023-02-07T02:05:30.703Z,65.01
2023-02-07T02:09:17.487Z,64.76
2023-02-07T02:12:55.692Z,64.80
2023-02-07T02:16:29.088Z,65.08
2023-02-07T02:19:48.259Z,64.80
2023-02-07T02:23:39.369Z,64.98
2023-02-07T02:27:21.803Z,64.42
2023-02-07T02:31:12.790Z,64.72
2023-02-07T02:34:16.002Z,64.90
2023-02-07T02:37:36.657Z,64.86
2023-02-07T02:41:10.934Z,64.56
2023-02-07T02:45:00.676Z,64.18
2023-02-07T02:48:10.416Z,64.72
2023-02-07T02:51:57.602Z,64.84
2023-02-07T02:55:36.377Z,64.82
2023-02-07T02:59:14.796Z,64.42
2023-02-07T03:02:41.080Z,64.64
2023-02-07T03:05:36.260Z,64.72
2023-02-07T03:08:48.565Z,64.86
2023-02-07T03:12:21.706Z,65.34
2023-02-07T03:16:02.324Z,64.79
2023-02-07T03:19:35.042Z,64.70
2023-02-07T03:23:02.761Z,64.72
2023-02-07T03:26:28.625Z,64.50
2023-02-07T03:29:59.794Z,64.54
2023-02-07T03:33:46.696Z,64.50
2023-02-07T03:37:13.688Z,64.60
2023-02-07T03:40:40.716Z,64.50
2023-02-07T03:44:13.853Z,64.77
2023-02-07T03:48:01.018Z,64.50
2023-02-07T03:51:39.316Z,64.80
2023-02-07T03:55:20.600Z,64.35
2023-02-07T03:59:00.855Z,64.75
2023-02-07T04:02:50.385Z,64.90
2023-02-07T05:07:40.551Z,66.06
2023-02-07T05:10:08.009Z,66.27
2023-02-07T05:12:35.070Z,65.83
2023-02-07T05:15:02.372Z,66.13
2023-02-07T05:17:30.987Z,66.73
2023-02-07T05:19:58.114Z,66.34
2023-02-07T05:22:26.117Z,66.67
2023-02-07T05:24:53.295Z,66.55
2023-02-07T05:27:20.603Z,66.87
2023-02-07T05:29:48.215Z,67.12
2023-02-07T05:32:35.631Z,67.40
2023-02-07T05:35:03.196Z,67.30
2023-02-07T05:37:30.374Z,67.47
2023-02-07T05:39:57.672Z,67.84
2023-02-07T05:42:25.091Z,67.57
2023-02-07T05:44:52.817Z,67.81
2023-02-07T05:47:20.068Z,67.83
2023-02-07T05:49:47.215Z,67.80
2023-02-07T05:52:14.397Z,67.96
2023-02-07T05:54:42.108Z,67.83
2023-02-07T05:57:09.445Z,68.24
2023-02-07T05:59:36.612Z,68.28
2023-02-07T06:02:03.745Z,68.34
2023-02-07T06:04:31.278Z,68.70
2023-02-07T06:06:58.385Z,68.47
2023-02-07T06:09:26.009Z,69.07
2023-02-07T06:11:53.331Z,68.80
2023-02-07T06:14:20.755Z,69.13
2023-02-07T06:16:47.941Z,69.05
2023-02-07T06:19:15.556Z,69.17
2023-02-07T06:21:46.826Z,69.17
2023-02-07T06:24:16.144Z,69.32
2023-02-07T06:26:44.240Z,69.63
2023-02-07T06:29:11.655Z,69.68
2023-02-07T06:31:38.983Z,69.80
2023-02-07T06:34:07.116Z,69.90
2023-02-07T06:36:34.412Z,69.72
2023-02-07T06:39:01.591Z,69.82
2023-02-07T06:41:29.158Z,69.93
2023-02-07T06:43:56.931Z,69.97
2023-02-07T06:46:24.319Z,69.91
2023-02-07T06:48:51.857Z,70.25
2023-02-07T06:51:19.065Z,70.91
2023-02-07T06:53:46.245Z,70.53
2023-02-07T06:56:13.664Z,70.91
2023-02-07T06:58:40.765Z,70.68
2023-02-07T07:01:08.348Z,70.81
2023-02-07T07:03:36.372Z,70.85
2023-02-07T07:06:03.516Z,70.85
2023-02-07T07:08:30.902Z,71.09
2023-02-07T07:10:58.337Z,71.35
2023-02-07T07:13:25.595Z,71.42
2023-02-07T07:15:52.871Z,71.36
2023-02-07T07:18:20.266Z,71.14
2023-02-07T07:20:47.568Z,71.06
2023-02-07T07:23:14.847Z,71.79
2023-02-07T07:25:42.433Z,71.92
2023-02-07T07:28:09.617Z,71.98
2023-02-07T07:30:36.803Z,71.98
2023-02-07T07:33:04.490Z,71.90
2023-02-07T07:35:32.599Z,71.91
2023-02-07T07:37:59.937Z,71.71
2023-02-07T07:40:27.352Z,71.96
2023-02-07T07:42:54.653Z,72.24
2023-02-07T07:45:22.022Z,72.36
2023-02-07T07:47:49.294Z,72.20
2023-02-07T07:50:16.458Z,72.19
2023-02-07T07:52:43.633Z,72.48
2023-02-07T07:55:11.685Z,72.67
2023-02-07T07:57:39.072Z,72.80
2023-02-07T08:00:06.892Z,72.74
2023-02-07T08:02:34.241Z,72.87
2023-02-07T08:05:01.903Z,72.83
2023-02-07T08:07:29.068Z,73.00
2023-02-07T08:09:56.305Z,72.85
2023-02-07T08:12:23.463Z,73.05
2023-02-07T08:14:50.756Z,73.37
2023-02-07T08:17:18.039Z,73.37
2023-02-07T08:19:45.327Z,73.27
2023-02-07T08:22:14.832Z,73.45
2023-02-07T08:24:43.210Z,73.47
2023-02-07T08:27:10.460Z,73.33
2023-02-07T08:29:37.701Z,73.35
2023-02-07T08:32:05.908Z,73.13
2023-02-07T08:34:37.826Z,73.14
2023-02-07T08:37:09.992Z,73.41
2023-02-07T08:39:37.241Z,73.64
2023-02-07T08:42:05.913Z,73.52
2023-02-07T08:44:33.733Z,73.46
2023-02-07T08:47:01.132Z,73.52
2023-02-07T08:49:28.355Z,73.58
2023-02-07T08:51:55.510Z,73.72
2023-02-07T08:54:22.715Z,73.65
2023-02-07T08:56:49.805Z,73.80
2023-02-07T08:59:16.994Z,73.85
2023-02-07T09:01:44.342Z,73.88
2023-02-07T09:04:12.100Z,73.71
2023-02-07T09:06:40.463Z,73.73
2023-02-07T09:09:08.300Z,73.86
2023-02-07T09:11:35.654Z,73.87
2023-02-07T09:14:02.975Z,73.81
2023-02-07T09:16:30.288Z,74.32
2023-02-07T09:18:57.538Z,74.33
2023-02-07T09:21:24.872Z,74.07
2023-02-07T09:23:54.372Z,73.77
2023-02-07T09:26:23.455Z,73.95
2023-02-07T09:28:50.688Z,74.15
2023-02-07T09:31:18.107Z,74.37
2023-02-07T09:33:45.430Z,74.52
2023-02-07T09:36:43.995Z,74.50
2023-02-07T09:39:11.310Z,74.68
2023-02-07T09:42:16.109Z,74.85
2023-02-07T09:44:46.808Z,75.00
2023-02-07T09:47:17.249Z,75.20
2023-02-07T09:49:51.629Z,75.30
2023-02-07T09:52:34.262Z,75.29
2023-02-07T09:55:03.344Z,75.14
2023-02-07T09:57:46.400Z,75.25
2023-02-07T10:00:38.098Z,75.32
2023-02-07T10:03:11.745Z,75.36
2023-02-07T10:05:52.452Z,75.45
2023-02-07T10:08:21.272Z,75.49
2023-02-07T10:11:23.608Z,75.49
2023-02-07T10:14:12.623Z,75.40
2023-02-07T10:16:48.269Z,75.46
2023-02-07T10:19:22.303Z,75.44
2023-02-07T10:22:17.522Z,75.48
2023-02-07T10:24:58.585Z,75.80
2023-02-07T10:27:37.756Z,75.68
2023-02-07T10:30:16.358Z,75.69
2023-02-07T10:32:47.406Z,76.00
2023-02-07T10:35:25.570Z,75.95
2023-02-07T10:37:57.590Z,76.03
2023-02-07T10:40:26.926Z,75.84
2023-02-07T10:43:07.562Z,75.96
2023-02-07T10:45:34.853Z,76.03
2023-02-07T10:48:02.228Z,76.13
2023-02-07T10:50:41.644Z,76.02
2023-02-07T10:53:09.606Z,76.12
2023-02-07T10:55:48.632Z,76.44
2023-02-07T10:58:23.253Z,76.32
2023-02-07T11:00:55.422Z,76.32
2023-02-07T11:03:27.077Z,76.21
2023-02-07T11:06:02.995Z,76.33
2023-02-07T11:08:35.972Z,76.34
2023-02-07T11:11:23.585Z,76.26
2023-02-07T11:13:53.652Z,76.24
2023-02-07T11:16:23.735Z,75.93
2023-02-07T11:19:16.791Z,76.03
2023-02-07T11:21:46.112Z,76.22
2023-02-07T11:24:18.119Z,76.30
2023-02-07T11:27:04.811Z,76.34
2023-02-07T11:29:34.571Z,76.38
2023-02-07T11:32:03.703Z,76.54
2023-02-07T11:34:53.418Z,76.31
2023-02-07T11:37:32.806Z,76.75
2023-02-07T11:40:22.595Z,76.51
2023-02-07T11:42:57.532Z,76.52
2023-02-07T11:45:25.572Z,76.53
2023-02-07T11:47:56.312Z,76.67
2023-02-07T11:50:32.535Z,76.71
2023-02-07T11:53:00.987Z,76.82
2023-02-07T11:55:40.668Z,76.60
2023-02-07T11:58:18.455Z,76.65
2023-02-07T12:00:47.719Z,76.53
2023-02-07T12:03:27.234Z,76.66
2023-02-07T12:06:01.775Z,76.61
2023-02-07T12:08:34.689Z,76.57
2023-02-07T12:11:19.560Z,76.72
2023-02-07T12:13:58.397Z,76.96
2023-02-07T12:16:40.526Z,77.07
2023-02-07T12:19:15.216Z,76.62
2023-02-07T12:21:48.897Z,76.69
2023-02-07T12:24:54.799Z,76.53
2023-02-07T12:27:32.957Z,76.42
2023-02-07T12:30:12.448Z,76.84
2023-02-07T12:32:56.689Z,76.75
2023-02-07T12:36:04.441Z,76.65
2023-02-07T12:38:39.074Z,77.01
2023-02-07T12:41:42.721Z,77.14
2023-02-07T12:44:29.059Z,77.27
2023-02-07T12:47:20.169Z,77.19
2023-02-07T12:50:18.227Z,77.15
2023-02-07T12:53:09.416Z,77.02
2023-02-07T12:56:04.486Z,76.53
2023-02-07T12:58:41.576Z,76.82
2023-02-07T13:01:25.333Z,76.60
2023-02-07T13:04:10.102Z,76.61
2023-02-07T13:07:00.700Z,76.86
2023-02-07T13:09:41.493Z,76.83
2023-02-07T13:12:23.049Z,76.66
2023-02-07T13:15:17.924Z,76.74
2023-02-07T13:18:07.468Z,76.97
2023-02-07T13:20:41.020Z,76.71
2023-02-07T13:23:34.482Z,76.90
2023-02-07T13:26:11.456Z,76.58
2023-02-07T13:29:05.926Z,76.61
2023-02-07T13:31:44.925Z,76.59
2023-02-07T13:34:20.603Z,76.74
2023-02-07T13:36:51.020Z,76.65
2023-02-07T13:39:42.850Z,76.20
2023-02-07T13:42:31.728Z,76.48
2023-02-07T13:45:27.981Z,76.43
2023-02-07T13:48:12.330Z,75.98
2023-02-07T13:50:55.066Z,76.54
2023-02-07T13:53:31.639Z,76.13
2023-02-07T13:56:09.597Z,76.31
2023-02-07T13:58:55.564Z,75.94
2023-02-07T14:01:25.545Z,76.44
2023-02-07T14:04:20.225Z,76.24
2023-02-07T14:07:04.177Z,76.42
2023-02-07T14:09:52.264Z,76.40
2023-02-07T14:12:25.661Z,76.14
2023-02-07T14:15:02.500Z,76.12
2023-02-07T14:17:30.929Z,76.10
2023-02-07T14:20:04.076Z,76.22
2023-02-07T14:22:52.698Z,76.05
2023-02-07T14:25:41.745Z,76.06
2023-02-07T14:28:35.038Z,76.05
2023-02-07T14:31:20.465Z,76.04
2023-02-07T14:34:12.976Z,75.91
2023-02-07T14:36:41.801Z,75.84
2023-02-07T14:39:21.076Z,75.66
2023-02-07T14:41:51.849Z,75.74
2023-02-07T14:44:38.599Z,76.01
2023-02-07T14:47:08.081Z,75.80
2023-02-07T14:50:39.627Z,75.76
2023-02-07T14:54:11.041Z,76.09
2023-02-07T14:57:43.601Z,75.99
2023-02-07T15:01:31.402Z,75.87
2023-02-07T15:05:19.401Z,75.92
2023-02-07T15:09:07.068Z,75.78
2023-02-07T15:12:55.913Z,76.02
2023-02-07T15:16:46.480Z,76.00
2023-02-07T15:20:33.645Z,75.98
2023-02-07T15:24:21.193Z,76.20
2023-02-07T15:28:15.564Z,75.73
2023-02-07T15:32:20.758Z,75.67
2023-02-07T15:36:08.485Z,75.92
2023-02-07T15:39:55.983Z,76.01
2023-02-07T15:44:10.648Z,76.24
2023-02-07T15:48:10.200Z,75.96
2023-02-07T15:51:42.356Z,76.11
2023-02-07T15:55:30.138Z,76.07
2023-02-07T15:59:19.390Z,75.95
2023-02-07T16:03:07.114Z,75.87
2023-02-07T16:06:55.887Z,76.03
2023-02-07T16:10:56.302Z,76.10
2023-02-07T16:14:53.337Z,76.04
2023-02-07T16:18:44.000Z,75.96
2023-02-07T16:22:33.488Z,76.34
2023-02-07T16:26:21.240Z,76.15
2023-02-07T16:29:59.005Z,76.09
2023-02-07T16:33:31.183Z,75.96
2023-02-07T16:37:19.257Z,76.31
2023-02-07T16:40:31.574Z,75.77
2023-02-07T16:44:38.258Z,75.79
2023-02-07T16:48:28.912Z,75.93
2023-02-07T16:52:20.854Z,76.02
2023-02-07T16:56:12.759Z,75.90
2023-02-07T17:00:01.571Z,76.02
2023-02-07T17:03:49.339Z,75.93
2023-02-07T17:07:39.224Z,76.06
2023-02-07T17:11:30.594Z,76.18
2023-02-07T17:15:19.189Z,76.31
2023-02-07T17:18:54.061Z,76.06
2023-02-07T17:22:43.459Z,75.68
2023-02-07T17:26:32.273Z,76.34
2023-02-07T17:30:07.713Z,76.28
2023-02-07T17:33:59.230Z,76.16
2023-02-07T17:37:35.135Z,76.28
2023-02-07T17:40:06.685Z,75.92
2023-02-07T17:43:35.048Z,76.02
2023-02-07T17:46:07.523Z,76.20
2023-02-07T17:49:41.551Z,76.03
2023-02-07T17:53:33.083Z,76.12
2023-02-07T17:57:12.205Z,75.83
2023-02-07T18:00:38.370Z,76.00
2023-02-07T18:04:34.672Z,76.14
2023-02-07T18:08:24.391Z,76.38
2023-02-07T18:11:53.507Z,76.21
2023-02-07T18:15:42.902Z,76.26
2023-02-07T18:19:33.682Z,76.48
2023-02-07T18:23:23.761Z,76.27
2023-02-07T18:27:20.404Z,75.92
2023-02-07T18:31:09.720Z,76.06
2023-02-07T18:35:01.037Z,76.12
2023-02-07T18:38:53.028Z,76.27
2023-02-07T18:42:47.544Z,76.16
2023-02-07T18:46:20.470Z,76.53
2023-02-07T18:50:22.515Z,76.52
2023-02-07T18:58:08.792Z,76.75
2023-02-07T19:02:06.625Z,76.39
2023-02-07T19:06:03.404Z,76.65
2023-02-07T19:09:55.899Z,76.78
2023-02-07T19:13:31.384Z,76.61
2023-02-07T19:17:00.275Z,76.66
2023-02-07T19:20:29.432Z,77.14
2023-02-07T19:24:22.387Z,76.88
2023-02-07T19:28:15.434Z,76.68
2023-02-07T19:32:06.874Z,76.86
2023-02-07T19:36:00.416Z,76.74
2023-02-07T19:39:51.708Z,76.64
2023-02-07T19:43:45.401Z,76.71
2023-02-07T19:47:37.273Z,76.75
2023-02-07T19:51:33.464Z,76.96
2023-02-07T19:55:07.446Z,77.00
2023-02-07T19:58:58.882Z,76.96
2023-02-07T20:02:54.661Z,76.92
2023-02-07T20:06:49.336Z,77.36
2023-02-07T20:10:33.583Z,77.04
2023-02-07T20:14:10.399Z,76.67
2023-02-07T20:18:00.214Z,76.72
2023-02-07T20:21:52.178Z,77.33
2023-02-07T20:25:41.414Z,77.47
2023-02-07T20:29:34.283Z,77.08
2023-02-07T20:33:23.918Z,77.25
2023-02-07T20:36:54.983Z,77.10
2023-02-07T20:40:49.602Z,77.18
2023-02-07T20:44:43.171Z,77.40
2023-02-07T20:48:34.176Z,77.20
2023-02-07T20:52:23.105Z,76.93
2023-02-07T20:55:52.926Z,77.24
2023-02-07T20:59:47.038Z,76.88
2023-02-07T21:03:35.219Z,77.18
2023-02-07T21:07:24.890Z,77.48
2023-02-07T21:10:55.338Z,77.28
2023-02-07T21:14:45.189Z,77.41
2023-02-07T21:22:20.060Z,77.44
2023-02-07T21:26:09.594Z,77.32
2023-02-07T21:30:01.118Z,77.06
2023-02-07T21:33:50.148Z,77.17
2023-02-07T21:37:39.551Z,77.60
2023-02-07T21:41:29.990Z,77.34
2023-02-07T21:45:18.280Z,77.26
2023-02-07T21:49:06.451Z,77.71
2023-02-07T21:52:56.521Z,77.38
2023-02-07T21:56:46.678Z,77.29
2023-02-07T22:00:38.114Z,77.30
2023-02-07T22:04:27.194Z,77.63
2023-02-07T22:08:15.205Z,77.81
2023-02-07T22:12:09.216Z,77.74
2023-02-07T22:15:56.900Z,77.57
2023-02-07T22:19:45.398Z,77.45
2023-02-07T22:23:33.439Z,77.69
2023-02-07T22:27:21.520Z,77.53
2023-02-07T22:31:10.262Z,77.50
2023-02-07T22:34:57.913Z,77.76
2023-02-07T22:38:45.778Z,77.89
2023-02-07T22:42:34.610Z,77.92
2023-02-07T22:46:25.052Z,77.86
2023-02-07T22:50:13.960Z,77.72
2023-02-07T22:54:03.622Z,77.87
2023-02-07T22:57:51.329Z,77.88
2023-02-07T23:01:39.464Z,78.03
2023-02-07T23:05:28.664Z,78.14
2023-02-07T23:09:15.566Z,78.07
2023-02-07T23:13:05.911Z,78.22
2023-02-07T23:16:54.052Z,78.40
2023-02-07T23:20:42.255Z,78.13
2023-02-07T23:24:33.071Z,78.19
2023-02-07T23:28:22.181Z,78.30
2023-02-07T23:32:09.701Z,78.24
2023-02-07T23:35:58.917Z,78.21
2023-02-07T23:39:48.048Z,78.05
2023-02-07T23:43:38.309Z,77.98
2023-02-07T23:47:26.478Z,78.31
2023-02-07T23:51:15.429Z,78.00
2023-02-07T23:55:04.110Z,78.28
2023-02-07T23:58:54.558Z,78.16
